OOMS/MCT METAR and TAF weather

Enter ICAO airport designator
Station Type Date Time Source
OOMS METAR 2021/09/24 03:50 UTC NOAA

OOMS 240350Z 05006KT 030V090 9999 FEW020 31/28 Q1006 NOSIG


Station Type Date Time Source
OOMS Decoded METAR 2021/09/24 03:50 UTC NOAA

Seeb, International Airport, Oman (OOMS) 23-35N 058-17E 17M
Sep 23, 2021 - 11:50 PM EDT / 2021.09.24 0350 UTC
Wind: from the NE (050 degrees) at 7 MPH (6 KT) (direction variable):0
Visibility: greater than 7 mile(s):0
Sky conditions: mostly clear
Temperature: 87 F (31 C)
Heat index: 105.3 F (40.7 C):1
Dew Point: 82 F (28 C)
Relative Humidity: 84%
Pressure (altimeter): 29.71 in. Hg (1006 hPa)
ob: OOMS 240350Z 05006KT 030V090 9999 FEW020 31/28 Q1006 NOSIG
cycle: 4

Station Type Date Time Source
OOMS TAF 2021/09/24 06:06 UTC NOAA

TAF OOMS 240500Z 2406/2512 04013KT 8000 FEW030
BECMG 2416/2418 VRB02KT PROB30
TEMPO 2422/2504 4000 BR BKN010
BECMG 2506/2508 05012KT

Example: see airport list